createdAt,value
2023-01-26T00:01:48.735Z,0.10
2023-01-26T00:06:36.351Z,0.20
2023-01-26T00:11:30.465Z,0.20
2023-01-26T00:16:16.224Z,0.20
2023-01-26T00:21:02.771Z,0.30
2023-01-26T00:25:50.333Z,0.30
2023-01-26T00:30:37.827Z,0.30
2023-01-26T00:35:24.441Z,0.30
2023-01-26T00:40:14.076Z,0.30
2023-01-26T00:45:02.144Z,0.20
2023-01-26T00:49:51.072Z,0.20
2023-01-26T00:54:37.658Z,0.10
2023-01-26T00:59:24.513Z,0.10
2023-01-26T01:04:20.095Z,0.00
2023-01-26T01:09:17.067Z,0.00
2023-01-26T01:14:09.709Z,-0.10
2023-01-26T01:18:54.752Z,0.00
2023-01-26T01:23:43.516Z,0.10
2023-01-26T01:28:31.362Z,0.00
2023-01-26T01:33:18.181Z,0.10
2023-01-26T01:38:05.035Z,0.20
2023-01-26T01:43:09.452Z,0.10
2023-01-26T02:05:48.937Z,0.10
2023-01-26T02:17:00.531Z,0.20
2023-01-26T02:22:26.477Z,0.10
2023-01-26T02:27:28.103Z,0.10
2023-01-26T02:45:42.716Z,0.10
2023-01-26T02:50:27.826Z,0.00
2023-01-26T02:55:33.727Z,0.00
2023-01-26T03:00:29.625Z,0.10
2023-01-26T03:05:21.827Z,0.00
2023-01-26T03:10:27.374Z,0.00
2023-01-26T03:33:08.985Z,0.10
2023-01-26T03:37:55.295Z,0.10
2023-01-26T03:49:55.889Z,0.20
2023-01-26T04:01:02.053Z,0.20
2023-01-26T04:11:58.911Z,0.10
2023-01-26T04:29:44.610Z,0.10
2023-01-26T04:45:10.706Z,0.00
2023-01-26T06:02:28.961Z,0.00
2023-01-26T06:43:48.648Z,0.00
2023-01-26T16:11:54.996Z,-0.90
2023-01-26T16:16:39.293Z,-1.00
2023-01-26T16:21:42.225Z,-0.90
2023-01-26T16:26:35.912Z,-0.90
2023-01-26T16:31:22.526Z,-0.90
2023-01-26T16:36:11.803Z,-1.00
2023-01-26T16:40:55.503Z,-1.10
2023-01-26T16:45:48.309Z,-1.10
2023-01-26T16:50:33.458Z,-1.00
2023-01-26T16:55:23.514Z,-1.20
2023-01-26T17:00:08.329Z,-1.10
2023-01-26T17:04:57.736Z,-1.00
2023-01-26T17:09:45.159Z,-1.10
2023-01-26T17:14:32.319Z,-1.20
2023-01-26T17:19:20.515Z,-1.30
2023-01-26T17:24:08.126Z,-1.30
2023-01-26T17:28:57.448Z,-1.20
2023-01-26T17:33:44.368Z,-1.20
2023-01-26T17:38:31.575Z,-1.20
2023-01-26T17:43:22.130Z,-1.20
2023-01-26T17:48:09.696Z,-1.30
2023-01-26T17:52:56.408Z,-1.40
2023-01-26T17:57:43.165Z,-1.40
2023-01-26T18:02:38.754Z,-1.30
2023-01-26T18:07:37.038Z,-1.20
2023-01-26T18:12:23.869Z,-1.30
2023-01-26T18:17:33.134Z,-1.30
2023-01-26T18:22:16.673Z,-1.30
2023-01-26T18:27:06.019Z,-1.40
2023-01-26T18:32:13.740Z,-1.20
2023-01-26T18:36:57.513Z,-1.40
2023-01-26T18:41:44.716Z,-1.30
2023-01-26T18:46:33.010Z,-1.50
2023-01-26T18:51:20.413Z,-1.30
2023-01-26T18:56:10.109Z,-1.40
2023-01-26T19:00:55.737Z,-1.30
2023-01-26T19:05:44.954Z,-1.40
2023-01-26T19:10:33.468Z,-1.40
2023-01-26T19:15:20.282Z,-1.30
2023-01-26T19:20:08.854Z,-1.50
2023-01-26T19:25:01.538Z,-1.40
2023-01-26T19:29:46.805Z,-1.40
2023-01-26T19:34:47.332Z,-1.50
2023-01-26T19:45:16.511Z,-1.50
2023-01-26T19:50:33.921Z,-1.40
2023-01-26T19:55:37.371Z,-1.40
2023-01-26T20:00:26.098Z,-1.50
2023-01-26T20:10:54.696Z,-1.50
2023-01-26T20:16:29.474Z,-1.50
2023-01-26T20:21:34.442Z,-1.40
2023-01-26T20:26:51.044Z,-1.50
2023-01-26T20:37:46.630Z,-1.50
2023-01-26T21:33:34.041Z,-1.40
2023-01-26T21:39:17.148Z,-1.40
2023-01-26T21:44:46.705Z,-1.60
2023-01-26T21:49:56.875Z,-1.60
2023-01-26T21:54:50.923Z,-1.50
2023-01-26T21:59:38.914Z,-1.50
2023-01-26T22:04:25.829Z,-1.50
2023-01-26T22:09:28.903Z,-1.50
2023-01-26T22:19:42.717Z,-1.50
2023-01-26T22:24:43.995Z,-1.50
2023-01-26T22:29:29.878Z,-1.50
2023-01-26T22:34:22.660Z,-1.60
2023-01-26T22:39:40.206Z,-1.40
2023-01-26T22:45:32.056Z,-1.40
2023-01-26T22:50:21.947Z,-1.40
2023-01-26T23:00:44.972Z,-1.60
2023-01-26T23:06:01.781Z,-1.60
2023-01-26T23:10:50.857Z,-1.60
2023-01-26T23:15:51.416Z,-1.60
2023-01-26T23:20:46.495Z,-1.60
2023-01-26T23:26:02.335Z,-1.70
2023-01-26T23:31:07.900Z,-1.70
2023-01-26T23:35:55.975Z,-1.60
2023-01-26T23:41:26.256Z,-1.60
2023-01-26T23:46:52.275Z,-1.70
2023-01-26T23:51:42.592Z,-1.60
